createdAt,value
2022-11-06T00:00:58.257Z,7.50
2022-11-06T00:03:26.411Z,7.50
2022-11-06T00:06:15.422Z,7.40
2022-11-06T00:08:43.308Z,7.40
2022-11-06T00:11:11.489Z,7.40
2022-11-06T00:13:53.232Z,7.40
2022-11-06T00:16:21.207Z,7.30
2022-11-06T00:18:48.897Z,7.20
2022-11-06T00:21:21.826Z,7.20
2022-11-06T00:23:50.978Z,7.10
2022-11-06T00:26:20.001Z,7.10
2022-11-06T00:28:47.919Z,7.00
2022-11-06T00:31:16.636Z,6.90
2022-11-06T00:33:44.548Z,6.90
2022-11-06T00:36:13.647Z,6.90
2022-11-06T00:38:43.146Z,6.90
2022-11-06T00:41:11.919Z,6.80
2022-11-06T00:43:39.990Z,6.80
2022-11-06T00:46:08.906Z,6.80
2022-11-06T00:48:36.981Z,6.70
2022-11-06T00:51:04.758Z,6.70
2022-11-06T00:53:32.548Z,6.70
2022-11-06T00:56:06.357Z,6.70
2022-11-06T00:58:35.835Z,6.70
2022-11-06T01:01:07.285Z,6.70
2022-11-06T01:03:34.980Z,6.60
2022-11-06T01:06:09.497Z,6.60
2022-11-06T01:08:37.548Z,6.60
2022-11-06T01:11:11.171Z,6.50
2022-11-06T01:13:38.886Z,6.80
2022-11-06T01:16:07.521Z,7.30
2022-11-06T01:18:35.560Z,7.60
2022-11-06T01:21:04.816Z,7.80
2022-11-06T01:23:32.486Z,7.90
2022-11-06T01:26:00.823Z,8.00
2022-11-06T01:28:30.081Z,8.10
2022-11-06T01:30:57.909Z,8.20
2022-11-06T01:33:25.649Z,8.30
2022-11-06T01:35:53.476Z,8.30
2022-11-06T01:38:21.148Z,8.40
2022-11-06T01:40:49.319Z,8.40
2022-11-06T01:43:18.685Z,8.40
2022-11-06T01:45:48.916Z,8.20
2022-11-06T01:48:17.195Z,8.10
2022-11-06T01:50:47.208Z,7.80
2022-11-06T01:53:15.396Z,7.70
2022-11-06T01:55:44.213Z,7.80
2022-11-06T01:58:14.268Z,8.10
2022-11-06T02:00:43.106Z,8.20
2022-11-06T02:03:13.631Z,8.30
2022-11-06T02:05:41.718Z,8.30
2022-11-06T02:08:11.519Z,8.40
2022-11-06T02:10:39.841Z,8.50
2022-11-06T02:13:25.448Z,8.50
2022-11-06T02:15:55.568Z,8.30
2022-11-06T02:18:31.152Z,8.40
2022-11-06T02:21:13.595Z,8.50
2022-11-06T02:23:54.293Z,8.50
2022-11-06T02:26:38.678Z,8.40
2022-11-06T02:29:10.243Z,8.40
2022-11-06T02:31:42.365Z,8.50
2022-11-06T02:34:13.387Z,8.50
2022-11-06T02:36:42.770Z,8.60
2022-11-06T02:39:15.288Z,8.70
2022-11-06T02:41:44.947Z,8.80
2022-11-06T02:44:16.453Z,8.70
2022-11-06T02:46:46.365Z,8.60
2022-11-06T02:49:19.230Z,8.60
2022-11-06T02:51:49.878Z,8.40
2022-11-06T02:54:20.391Z,8.40
2022-11-06T02:56:49.033Z,8.40
2022-11-06T02:59:21.225Z,8.40
2022-11-06T03:01:51.185Z,8.50
2022-11-06T03:04:22.371Z,8.40
2022-11-06T03:06:53.042Z,8.20
2022-11-06T03:09:21.837Z,8.10
2022-11-06T03:11:52.538Z,7.80
2022-11-06T03:14:24.935Z,7.80
2022-11-06T03:16:54.688Z,7.70
2022-11-06T03:19:25.201Z,7.90
2022-11-06T03:21:55.243Z,8.00
2022-11-06T03:24:31.237Z,8.00
2022-11-06T03:27:00.169Z,8.00
2022-11-06T03:29:31.286Z,7.90
2022-11-06T03:32:01.810Z,7.80
2022-11-06T03:34:31.043Z,7.70
2022-11-06T03:37:02.043Z,7.60
2022-11-06T03:39:32.353Z,7.70
2022-11-06T03:42:02.017Z,7.70
2022-11-06T03:44:33.469Z,7.60
2022-11-06T03:47:03.393Z,7.50
2022-11-06T03:49:32.238Z,7.60
2022-11-06T03:52:02.085Z,7.60
2022-11-06T03:54:31.505Z,7.60
2022-11-06T03:57:01.648Z,7.60
2022-11-06T03:59:34.997Z,7.70
2022-11-06T04:02:03.351Z,7.80
2022-11-06T04:04:33.585Z,7.90
2022-11-06T04:07:02.674Z,7.90
2022-11-06T04:09:49.919Z,8.00
2022-11-06T04:12:38.643Z,7.90
2022-11-06T04:15:10.220Z,7.80
2022-11-06T04:17:38.610Z,7.70
2022-11-06T04:20:08.288Z,7.60
2022-11-06T04:22:44.088Z,7.50
2022-11-06T04:25:36.518Z,7.60
2022-11-06T04:28:12.780Z,7.50
2022-11-06T04:30:46.009Z,7.50
2022-11-06T04:33:15.877Z,7.40
2022-11-06T04:35:48.776Z,7.40
2022-11-06T04:38:24.194Z,7.50
2022-11-06T04:40:54.353Z,7.40
2022-11-06T04:43:23.950Z,7.60
2022-11-06T04:45:54.668Z,7.70
2022-11-06T04:48:23.281Z,7.70
2022-11-06T04:50:53.294Z,7.70
2022-11-06T04:53:21.992Z,7.60
2022-11-06T04:55:50.987Z,7.60
2022-11-06T04:58:18.664Z,7.60
2022-11-06T05:00:47.367Z,7.70
2022-11-06T05:03:17.002Z,7.40
2022-11-06T05:05:44.846Z,7.40
2022-11-06T05:08:14.342Z,7.40
2022-11-06T05:10:42.300Z,7.30
2022-11-06T05:13:09.998Z,7.40
2022-11-06T05:15:38.135Z,7.30
2022-11-06T05:18:06.336Z,7.20
2022-11-06T05:20:35.436Z,7.20
2022-11-06T05:23:02.267Z,7.20
2022-11-06T05:25:30.485Z,7.30
2022-11-06T05:27:58.621Z,7.40
2022-11-06T05:30:26.454Z,7.50
2022-11-06T05:32:54.394Z,7.50
2022-11-06T05:35:22.126Z,7.50
2022-11-06T05:37:51.182Z,7.50
2022-11-06T05:40:18.981Z,7.60
2022-11-06T05:42:46.654Z,7.80
2022-11-06T05:45:14.336Z,7.80
2022-11-06T05:47:42.529Z,7.70
2022-11-06T05:50:10.692Z,7.60
2022-11-06T05:52:38.743Z,7.50
2022-11-06T05:55:13.229Z,7.40
2022-11-06T05:57:42.377Z,7.50
2022-11-06T06:00:10.732Z,7.50
2022-11-06T06:02:38.739Z,7.50
2022-11-06T06:05:07.096Z,7.50
2022-11-06T06:07:34.996Z,7.40
2022-11-06T06:10:02.717Z,7.20
2022-11-06T06:12:31.755Z,7.20
2022-11-06T06:14:59.507Z,7.40
2022-11-06T06:17:27.307Z,7.50
2022-11-06T06:19:55.011Z,7.50
2022-11-06T06:22:22.692Z,7.50
2022-11-06T06:24:50.448Z,7.40
2022-11-06T06:27:18.228Z,7.20
2022-11-06T06:29:47.200Z,7.00
2022-11-06T06:32:15.788Z,6.80
2022-11-06T06:34:43.506Z,6.70
2022-11-06T06:37:14.387Z,6.50
2022-11-06T06:39:45.452Z,6.40
2022-11-06T06:42:13.123Z,6.20
2022-11-06T06:44:40.806Z,6.20
2022-11-06T06:47:09.877Z,6.20
2022-11-06T06:49:37.571Z,6.20
2022-11-06T06:52:05.415Z,6.20
2022-11-06T06:54:33.116Z,6.20
2022-11-06T06:57:00.907Z,6.20
2022-11-06T06:59:29.364Z,6.30
2022-11-06T07:01:57.687Z,6.30
2022-11-06T07:04:26.753Z,6.30
2022-11-06T07:06:54.614Z,6.30
2022-11-06T07:09:23.766Z,6.40
2022-11-06T07:11:51.436Z,6.30
2022-11-06T07:14:19.120Z,6.20
2022-11-06T07:16:52.585Z,6.20
2022-11-06T07:19:21.638Z,6.20
2022-11-06T07:21:53.319Z,6.20
2022-11-06T07:24:21.113Z,6.20
2022-11-06T07:26:48.807Z,6.30
2022-11-06T07:29:16.516Z,6.40
2022-11-06T07:31:44.205Z,6.40
2022-11-06T07:34:12.031Z,6.50
2022-11-06T07:36:39.719Z,7.70
2022-11-06T07:39:08.760Z,9.80
2022-11-06T07:41:36.469Z,10.90
2022-11-06T07:44:04.242Z,11.50
2022-11-06T07:46:31.910Z,11.10
2022-11-06T07:48:59.573Z,10.50
2022-11-06T07:51:27.291Z,9.80
2022-11-06T07:53:54.973Z,9.10
2022-11-06T07:56:24.085Z,8.30
2022-11-06T07:58:51.767Z,7.80
2022-11-06T08:01:19.525Z,7.60
2022-11-06T08:03:47.474Z,7.30
2022-11-06T08:06:15.189Z,7.20
2022-11-06T08:08:42.858Z,7.10
2022-11-06T08:11:11.533Z,7.10
2022-11-06T08:13:40.895Z,7.10
2022-11-06T08:16:09.379Z,7.10
2022-11-06T08:18:37.333Z,7.20
2022-11-06T08:21:05.416Z,7.30
2022-11-06T08:23:33.122Z,7.40
2022-11-06T08:26:02.300Z,7.70
2022-11-06T08:28:30.397Z,8.10
2022-11-06T08:30:59.401Z,8.50
2022-11-06T08:33:27.089Z,8.90
2022-11-06T08:35:54.780Z,9.20
2022-11-06T08:38:22.442Z,9.50
2022-11-06T08:40:53.674Z,9.80
2022-11-06T08:43:24.089Z,9.90
2022-11-06T08:45:51.779Z,9.80
2022-11-06T08:48:20.804Z,9.80
2022-11-06T08:50:48.493Z,9.70
2022-11-06T08:53:16.728Z,9.50
2022-11-06T08:55:44.806Z,9.40
2022-11-06T08:58:14.007Z,9.30
2022-11-06T09:00:42.168Z,9.30
2022-11-06T09:03:11.970Z,9.20
2022-11-06T09:05:42.423Z,9.10
2022-11-06T09:08:10.533Z,9.00
2022-11-06T09:10:38.659Z,9.00
2022-11-06T09:13:06.590Z,9.00
2022-11-06T09:15:34.254Z,9.00
2022-11-06T09:18:01.985Z,9.00
2022-11-06T09:20:29.993Z,8.90
2022-11-06T09:23:02.984Z,9.00
2022-11-06T09:25:31.086Z,9.20
2022-11-06T09:27:59.843Z,9.40
2022-11-06T09:30:29.627Z,9.60
2022-11-06T09:32:58.304Z,10.00
2022-11-06T09:35:27.325Z,10.20
2022-11-06T09:37:55.023Z,10.60
2022-11-06T09:40:27.865Z,10.90
2022-11-06T09:43:01.643Z,11.10
2022-11-06T09:45:30.682Z,11.20
2022-11-06T09:48:00.226Z,10.80
2022-11-06T09:50:30.303Z,11.10
2022-11-06T09:53:05.612Z,11.50
2022-11-06T09:55:38.716Z,12.00
2022-11-06T09:58:11.026Z,11.90
2022-11-06T10:00:39.744Z,12.10
2022-11-06T10:03:13.351Z,12.20
2022-11-06T10:05:42.061Z,12.40
2022-11-06T10:08:14.880Z,12.50
2022-11-06T10:10:51.386Z,12.50
2022-11-06T10:13:24.705Z,12.60
2022-11-06T10:15:55.075Z,12.50
2022-11-06T10:18:30.439Z,12.40
2022-11-06T10:21:02.327Z,12.70
2022-11-06T10:23:34.912Z,13.00
2022-11-06T10:26:08.482Z,13.10
2022-11-06T10:28:44.244Z,13.40
2022-11-06T10:31:15.579Z,13.60
2022-11-06T10:33:50.712Z,13.90
2022-11-06T10:36:19.326Z,14.20
2022-11-06T10:38:49.006Z,14.40
2022-11-06T10:41:20.400Z,14.70
2022-11-06T10:43:50.504Z,14.70
2022-11-06T10:46:21.572Z,14.60
2022-11-06T10:48:52.392Z,14.40
2022-11-06T10:51:25.982Z,14.60
2022-11-06T10:54:00.058Z,14.80
2022-11-06T10:56:41.102Z,14.90
2022-11-06T10:59:09.089Z,15.20
2022-11-06T11:01:38.164Z,15.30
2022-11-06T11:04:05.967Z,15.50
2022-11-06T11:06:33.653Z,15.50
2022-11-06T11:09:01.920Z,15.60
2022-11-06T11:11:29.916Z,16.00
2022-11-06T11:14:15.410Z,16.30
2022-11-06T11:16:44.761Z,16.70
2022-11-06T11:19:17.007Z,16.80
2022-11-06T11:21:53.149Z,16.70
2022-11-06T11:24:20.889Z,17.00
2022-11-06T11:26:49.860Z,17.40
2022-11-06T11:29:22.827Z,17.60
2022-11-06T11:31:52.022Z,17.70
2022-11-06T11:34:20.834Z,17.80
2022-11-06T11:36:50.130Z,17.50
2022-11-06T11:39:18.956Z,17.70
2022-11-06T11:41:46.666Z,17.70
2022-11-06T11:44:19.617Z,17.60
2022-11-06T11:46:48.257Z,17.60
2022-11-06T11:49:29.522Z,17.70
2022-11-06T11:51:57.896Z,17.70
2022-11-06T11:54:27.135Z,17.60
2022-11-06T11:57:05.176Z,16.70
2022-11-06T11:59:37.575Z,16.10
2022-11-06T12:02:12.626Z,15.40
2022-11-06T12:04:42.161Z,14.70
2022-11-06T12:07:15.922Z,14.20
2022-11-06T12:09:44.472Z,14.00
2022-11-06T12:12:21.286Z,13.90
2022-11-06T12:15:03.753Z,13.80
2022-11-06T12:17:33.454Z,13.60
2022-11-06T12:20:01.494Z,13.40
2022-11-06T12:22:32.012Z,13.20
2022-11-06T12:25:02.084Z,13.00
2022-11-06T12:27:30.812Z,13.00
2022-11-06T12:30:04.165Z,13.00
2022-11-06T12:32:40.726Z,13.10
2022-11-06T12:35:14.224Z,13.20
2022-11-06T12:37:45.546Z,13.30
2022-11-06T12:40:23.538Z,13.40
2022-11-06T12:43:00.849Z,13.50
2022-11-06T12:45:36.716Z,13.50
2022-11-06T12:48:10.307Z,13.50
2022-11-06T12:50:42.893Z,13.40
2022-11-06T12:53:14.908Z,13.50
2022-11-06T12:55:44.804Z,13.40
2022-11-06T12:58:19.471Z,13.10
2022-11-06T13:00:53.774Z,13.00
2022-11-06T13:03:37.155Z,13.00
2022-11-06T13:06:13.058Z,12.90
2022-11-06T13:08:45.088Z,13.00
2022-11-06T13:11:18.616Z,13.10
2022-11-06T13:13:56.505Z,13.00
2022-11-06T13:16:29.909Z,13.10
2022-11-06T13:19:01.311Z,13.00
2022-11-06T13:21:33.816Z,13.00
2022-11-06T13:24:03.859Z,13.00
2022-11-06T13:26:35.127Z,13.00
2022-11-06T13:29:04.070Z,12.80
2022-11-06T13:31:36.816Z,12.90
2022-11-06T13:34:06.183Z,13.00
2022-11-06T13:36:36.709Z,12.90
2022-11-06T13:39:07.769Z,13.00
2022-11-06T13:41:35.441Z,13.00
2022-11-06T13:44:03.997Z,13.10
2022-11-06T13:46:37.853Z,13.10
2022-11-06T13:49:11.266Z,12.90
2022-11-06T13:51:42.541Z,12.90
2022-11-06T13:54:13.508Z,12.80
2022-11-06T13:56:46.689Z,12.60
2022-11-06T13:59:31.185Z,12.70
2022-11-06T14:02:12.565Z,12.60
2022-11-06T14:04:55.627Z,12.60
2022-11-06T14:07:23.797Z,12.50
2022-11-06T14:09:51.490Z,12.50
2022-11-06T14:12:20.703Z,12.40
2022-11-06T14:14:49.096Z,12.30
2022-11-06T14:17:22.724Z,12.30
2022-11-06T14:20:05.785Z,12.20
2022-11-06T14:22:36.231Z,12.20
2022-11-06T14:25:19.038Z,12.10
2022-11-06T14:28:04.226Z,12.00
2022-11-06T14:34:02.399Z,11.90
2022-11-06T14:36:32.419Z,11.70
2022-11-06T14:39:01.453Z,11.70
2022-11-06T14:41:47.876Z,11.70
2022-11-06T14:44:26.985Z,11.60
2022-11-06T14:46:56.175Z,11.70
2022-11-06T14:49:31.766Z,11.60
2022-11-06T14:52:00.245Z,11.60
2022-11-06T14:54:28.821Z,11.50
2022-11-06T14:56:56.595Z,11.50
2022-11-06T14:59:30.466Z,11.50
2022-11-06T15:02:00.023Z,11.40
2022-11-06T15:04:30.885Z,11.40
2022-11-06T15:07:07.248Z,11.40
2022-11-06T15:09:48.825Z,11.40
2022-11-06T15:12:17.016Z,11.40
2022-11-06T15:14:54.907Z,11.40
2022-11-06T15:17:24.062Z,11.30
2022-11-06T15:19:58.649Z,11.30
2022-11-06T15:22:30.753Z,11.30
2022-11-06T15:25:00.747Z,11.30
2022-11-06T15:27:33.622Z,11.30
2022-11-06T15:30:03.994Z,11.30
2022-11-06T15:32:33.501Z,11.30
2022-11-06T15:35:06.477Z,11.20
2022-11-06T15:37:38.922Z,11.20
2022-11-06T15:40:07.526Z,11.20
2022-11-06T15:42:36.656Z,11.20
2022-11-06T15:45:08.673Z,11.30
2022-11-06T15:47:36.353Z,11.30
2022-11-06T15:50:14.480Z,11.30
2022-11-06T15:52:42.686Z,11.20
2022-11-06T15:55:13.425Z,11.30
2022-11-06T15:57:41.464Z,11.20
2022-11-06T16:00:10.203Z,11.20
2022-11-06T16:02:47.300Z,11.20
2022-11-06T16:05:16.917Z,11.20
2022-11-06T16:07:45.804Z,11.10
2022-11-06T16:10:15.061Z,11.00
2022-11-06T16:12:42.948Z,10.90
2022-11-06T16:15:25.562Z,10.90
2022-11-06T16:17:53.233Z,10.90
2022-11-06T16:20:22.586Z,10.90
2022-11-06T16:22:50.379Z,10.90
2022-11-06T16:25:19.792Z,10.80
2022-11-06T16:27:47.499Z,10.80
2022-11-06T16:30:25.116Z,10.80
2022-11-06T16:32:53.665Z,10.80
2022-11-06T16:35:32.401Z,10.80
2022-11-06T16:38:40.379Z,10.80
2022-11-06T16:41:09.107Z,10.80
2022-11-06T16:43:36.759Z,10.70
2022-11-06T16:46:07.740Z,10.70
2022-11-06T16:48:37.045Z,10.70
2022-11-06T16:51:06.936Z,10.70
2022-11-06T16:53:50.136Z,10.70
2022-11-06T16:56:22.805Z,10.60
2022-11-06T16:58:52.388Z,10.60
2022-11-06T17:01:21.097Z,10.50
2022-11-06T17:03:50.381Z,10.50
2022-11-06T17:06:21.304Z,10.50
2022-11-06T17:08:58.220Z,10.40
2022-11-06T17:11:25.906Z,10.40
2022-11-06T17:13:53.580Z,10.30
2022-11-06T17:16:22.776Z,10.30
2022-11-06T17:18:50.759Z,10.30
2022-11-06T17:21:20.829Z,10.30
2022-11-06T17:23:48.833Z,10.30
2022-11-06T17:26:19.214Z,10.40
2022-11-06T17:28:46.875Z,10.40
2022-11-06T17:31:15.585Z,10.50
2022-11-06T17:33:43.750Z,10.50
2022-11-06T17:36:15.593Z,10.60
2022-11-06T17:38:44.800Z,10.60
2022-11-06T17:41:12.760Z,10.60
2022-11-06T17:43:40.468Z,10.60
2022-11-06T17:46:08.165Z,10.60
2022-11-06T17:48:36.481Z,10.60
2022-11-06T17:51:22.095Z,10.60
2022-11-06T17:53:51.118Z,10.60
2022-11-06T17:56:18.812Z,10.60
2022-11-06T17:58:46.531Z,10.60
2022-11-06T18:01:14.219Z,10.60
2022-11-06T18:03:43.853Z,10.50
2022-11-06T18:06:11.717Z,10.50
2022-11-06T18:08:39.401Z,10.50
2022-11-06T18:11:08.912Z,10.50
2022-11-06T18:13:37.180Z,10.50
2022-11-06T18:16:05.542Z,10.40
2022-11-06T18:18:35.056Z,10.30
2022-11-06T18:21:02.786Z,10.10
2022-11-06T18:23:30.486Z,10.10
2022-11-06T18:25:58.521Z,10.00
2022-11-06T18:28:27.570Z,9.90
2022-11-06T18:30:55.245Z,9.90
2022-11-06T18:33:22.966Z,9.80
2022-11-06T18:35:50.768Z,9.80
2022-11-06T18:38:18.907Z,9.80
2022-11-06T18:40:51.343Z,9.70
2022-11-06T18:43:19.500Z,9.70
2022-11-06T18:45:48.766Z,9.60
2022-11-06T18:48:21.006Z,9.60
2022-11-06T18:50:49.517Z,9.60
2022-11-06T18:53:17.164Z,9.60
2022-11-06T18:55:45.553Z,9.60
2022-11-06T18:58:13.714Z,9.50
2022-11-06T19:00:41.624Z,9.60
2022-11-06T19:03:11.781Z,9.50
2022-11-06T19:05:39.466Z,9.50
2022-11-06T19:08:07.122Z,9.50
2022-11-06T19:10:34.785Z,9.50
2022-11-06T19:13:02.583Z,9.50
2022-11-06T19:15:30.277Z,9.50
2022-11-06T19:17:57.948Z,9.50
2022-11-06T19:20:27.321Z,9.50
2022-11-06T19:22:55.132Z,9.50
2022-11-06T19:25:23.429Z,9.50
2022-11-06T19:27:51.221Z,9.40
2022-11-06T19:30:18.909Z,9.40
2022-11-06T19:32:46.761Z,9.40
2022-11-06T19:35:15.627Z,9.40
2022-11-06T19:37:44.745Z,9.40
2022-11-06T19:40:12.555Z,9.40
2022-11-06T19:42:40.231Z,9.30
2022-11-06T19:45:08.538Z,9.30
2022-11-06T19:47:37.109Z,9.30
2022-11-06T19:50:05.211Z,9.20
2022-11-06T19:52:41.101Z,9.20
2022-11-06T19:55:26.032Z,9.10
2022-11-06T19:57:54.897Z,9.10
2022-11-06T20:00:22.593Z,9.00
2022-11-06T20:02:50.765Z,9.00
2022-11-06T20:05:18.956Z,9.00
2022-11-06T20:07:46.717Z,9.00
2022-11-06T20:10:16.565Z,8.90
2022-11-06T20:12:44.263Z,8.90
2022-11-06T20:15:12.080Z,8.80
2022-11-06T20:17:39.788Z,8.80
2022-11-06T20:20:08.086Z,8.80
2022-11-06T20:22:35.782Z,8.60
2022-11-06T20:25:03.481Z,8.60
2022-11-06T20:27:32.517Z,8.60
2022-11-06T20:30:00.194Z,8.60
2022-11-06T20:32:27.875Z,8.60
2022-11-06T20:34:55.558Z,8.50
2022-11-06T20:37:23.325Z,8.50
2022-11-06T20:39:52.021Z,8.60
2022-11-06T20:42:19.714Z,8.60
2022-11-06T20:44:48.754Z,8.60
2022-11-06T20:47:16.450Z,8.60
2022-11-06T20:49:44.139Z,8.60
2022-11-06T20:52:14.410Z,8.60
2022-11-06T20:54:47.222Z,8.60
2022-11-06T20:57:15.725Z,8.70
2022-11-06T20:59:43.541Z,8.60
2022-11-06T21:02:12.799Z,8.60
2022-11-06T21:04:40.757Z,8.60
2022-11-06T21:07:08.445Z,8.70
2022-11-06T21:09:36.110Z,8.60
2022-11-06T21:12:03.902Z,8.60
2022-11-06T21:14:31.722Z,8.60
2022-11-06T21:16:59.877Z,8.70
2022-11-06T21:19:29.054Z,8.60
2022-11-06T21:21:58.067Z,8.70
2022-11-06T21:24:26.075Z,8.70
2022-11-06T21:26:55.159Z,8.70
2022-11-06T21:29:23.414Z,8.70
2022-11-06T21:31:51.366Z,8.70
2022-11-06T21:34:19.983Z,8.70
2022-11-06T21:36:49.112Z,8.70
2022-11-06T21:39:17.717Z,8.70
2022-11-06T21:41:45.629Z,8.70
2022-11-06T21:44:14.371Z,8.70
2022-11-06T21:46:45.139Z,8.70
2022-11-06T21:49:13.464Z,8.70
2022-11-06T21:51:41.177Z,8.70
2022-11-06T21:54:28.905Z,8.80
2022-11-06T21:56:56.582Z,8.80
2022-11-06T21:59:25.432Z,8.80
2022-11-06T22:01:53.325Z,8.80
2022-11-06T22:04:21.205Z,8.80
2022-11-06T22:06:48.874Z,8.90
2022-11-06T22:09:23.408Z,8.90
2022-11-06T22:11:52.908Z,8.90
2022-11-06T22:14:20.613Z,9.00
2022-11-06T22:16:48.309Z,9.00
2022-11-06T22:19:17.510Z,9.00
2022-11-06T22:21:45.484Z,9.00
2022-11-06T22:24:14.016Z,9.10
2022-11-06T22:26:43.095Z,9.10
2022-11-06T22:29:12.576Z,9.10
2022-11-06T22:31:40.522Z,9.10
2022-11-06T22:34:08.280Z,9.10
2022-11-06T22:36:37.254Z,9.10
2022-11-06T22:39:05.518Z,9.20
2022-11-06T22:41:33.348Z,9.10
2022-11-06T22:44:02.662Z,9.20
2022-11-06T22:46:31.013Z,9.20
2022-11-06T22:48:59.012Z,9.20
2022-11-06T22:51:27.623Z,9.30
2022-11-06T22:53:55.580Z,9.20
2022-11-06T22:56:24.344Z,9.30
2022-11-06T22:58:53.544Z,9.30
2022-11-06T23:01:22.969Z,9.30
2022-11-06T23:03:50.807Z,9.40
2022-11-06T23:06:18.540Z,9.40
2022-11-06T23:08:47.263Z,9.50
2022-11-06T23:11:17.076Z,9.40
2022-11-06T23:13:45.095Z,9.50
2022-11-06T23:16:13.687Z,9.50
2022-11-06T23:18:42.768Z,9.60
2022-11-06T23:21:14.216Z,9.60
2022-11-06T23:23:42.641Z,9.60
2022-11-06T23:26:14.120Z,9.60
2022-11-06T23:28:42.310Z,9.60
2022-11-06T23:31:10.499Z,9.60
2022-11-06T23:33:38.237Z,9.60
2022-11-06T23:36:08.135Z,9.60
2022-11-06T23:38:35.814Z,9.60
2022-11-06T23:41:25.698Z,9.60
2022-11-06T23:43:53.430Z,9.70
2022-11-06T23:46:20.581Z,9.70
2022-11-06T23:48:48.365Z,9.70
2022-11-06T23:51:17.691Z,9.60
2022-11-06T23:53:45.366Z,9.70
2022-11-06T23:56:13.762Z,9.70
